sensor_id;sensor_type;location;lat;lon;timestamp;P1;durP1;ratioP1;P2;durP2;ratioP2
55368;SDS011;41247;49.736;8.752;2022-09-09T00:00:32;4.05;;;0.80;;
55368;SDS011;41247;49.736;8.752;2022-09-09T00:08:11;4.10;;;0.80;;
55368;SDS011;41247;49.736;8.752;2022-09-09T00:12:02;5.57;;;1.08;;
55368;SDS011;41247;49.736;8.752;2022-09-09T00:23:54;4.93;;;0.85;;
55368;SDS011;41247;49.736;8.752;2022-09-09T00:27:45;5.43;;;1.10;;
55368;SDS011;41247;49.736;8.752;2022-09-09T00:31:30;2.72;;;0.68;;
55368;SDS011;41247;49.736;8.752;2022-09-09T00:35:22;2.97;;;0.65;;
55368;SDS011;41247;49.736;8.752;2022-09-09T00:39:34;7.05;;;1.10;;
55368;SDS011;41247;49.736;8.752;2022-09-09T00:43:27;4.68;;;0.70;;
55368;SDS011;41247;49.736;8.752;2022-09-09T00:47:30;5.88;;;1.02;;
55368;SDS011;41247;49.736;8.752;2022-09-09T00:51:39;5.15;;;0.80;;
55368;SDS011;41247;49.736;8.752;2022-09-09T01:03:56;5.30;;;1.00;;
55368;SDS011;41247;49.736;8.752;2022-09-09T01:07:36;4.22;;;0.90;;
55368;SDS011;41247;49.736;8.752;2022-09-09T01:11:27;3.63;;;0.68;;
55368;SDS011;41247;49.736;8.752;2022-09-09T01:19:07;5.18;;;0.73;;
55368;SDS011;41247;49.736;8.752;2022-09-09T01:23:21;4.80;;;0.90;;
55368;SDS011;41247;49.736;8.752;2022-09-09T01:27:21;4.95;;;0.90;;
55368;SDS011;41247;49.736;8.752;2022-09-09T01:31:04;7.38;;;1.23;;
55368;SDS011;41247;49.736;8.752;2022-09-09T01:34:48;11.35;;;1.30;;
55368;SDS011;41247;49.736;8.752;2022-09-09T01:38:30;6.68;;;0.98;;
55368;SDS011;41247;49.736;8.752;2022-09-09T01:42:13;4.88;;;0.90;;
55368;SDS011;41247;49.736;8.752;2022-09-09T01:45:56;1.75;;;0.82;;
55368;SDS011;41247;49.736;8.752;2022-09-09T01:49:40;3.40;;;0.77;;
55368;SDS011;41247;49.736;8.752;2022-09-09T01:53:21;8.35;;;1.27;;
55368;SDS011;41247;49.736;8.752;2022-09-09T01:57:15;5.13;;;0.90;;
55368;SDS011;41247;49.736;8.752;2022-09-09T02:09:20;4.53;;;0.90;;
55368;SDS011;41247;49.736;8.752;2022-09-09T02:13:05;3.97;;;0.70;;
55368;SDS011;41247;49.736;8.752;2022-09-09T02:16:55;4.80;;;0.77;;
55368;SDS011;41247;49.736;8.752;2022-09-09T02:20:42;2.85;;;0.90;;
55368;SDS011;41247;49.736;8.752;2022-09-09T02:24:24;3.90;;;1.02;;
55368;SDS011;41247;49.736;8.752;2022-09-09T02:28:08;7.13;;;1.27;;
55368;SDS011;41247;49.736;8.752;2022-09-09T02:31:51;5.88;;;1.08;;
55368;SDS011;41247;49.736;8.752;2022-09-09T02:35:36;5.82;;;0.80;;
55368;SDS011;41247;49.736;8.752;2022-09-09T02:39:17;4.40;;;1.00;;
55368;SDS011;41247;49.736;8.752;2022-09-09T02:42:58;8.30;;;1.10;;
55368;SDS011;41247;49.736;8.752;2022-09-09T02:46:46;3.45;;;1.10;;
55368;SDS011;41247;49.736;8.752;2022-09-09T02:50:59;3.00;;;1.20;;
55368;SDS011;41247;49.736;8.752;2022-09-09T02:54:48;3.90;;;1.00;;
55368;SDS011;41247;49.736;8.752;2022-09-09T02:58:34;5.18;;;0.90;;
55368;SDS011;41247;49.736;8.752;2022-09-09T03:02:16;4.97;;;1.10;;
55368;SDS011;41247;49.736;8.752;2022-09-09T03:05:56;4.28;;;1.20;;
55368;SDS011;41247;49.736;8.752;2022-09-09T03:09:37;3.72;;;0.93;;
55368;SDS011;41247;49.736;8.752;2022-09-09T03:13:18;6.72;;;1.40;;
55368;SDS011;41247;49.736;8.752;2022-09-09T03:16:58;6.57;;;0.88;;
55368;SDS011;41247;49.736;8.752;2022-09-09T03:20:39;11.57;;;1.13;;
55368;SDS011;41247;49.736;8.752;2022-09-09T03:24:19;6.07;;;0.90;;
55368;SDS011;41247;49.736;8.752;2022-09-09T03:28:00;6.18;;;1.27;;
55368;SDS011;41247;49.736;8.752;2022-09-09T03:31:41;7.60;;;1.10;;
55368;SDS011;41247;49.736;8.752;2022-09-09T03:35:21;9.15;;;1.48;;
55368;SDS011;41247;49.736;8.752;2022-09-09T03:39:02;6.07;;;1.20;;
55368;SDS011;41247;49.736;8.752;2022-09-09T03:42:43;8.13;;;0.98;;
55368;SDS011;41247;49.736;8.752;2022-09-09T03:46:24;5.68;;;0.75;;
55368;SDS011;41247;49.736;8.752;2022-09-09T03:50:07;8.85;;;1.48;;
55368;SDS011;41247;49.736;8.752;2022-09-09T03:53:48;6.18;;;1.00;;
55368;SDS011;41247;49.736;8.752;2022-09-09T03:57:29;6.47;;;1.63;;
55368;SDS011;41247;49.736;8.752;2022-09-09T04:01:10;5.30;;;1.15;;
55368;SDS011;41247;49.736;8.752;2022-09-09T04:04:52;3.70;;;1.13;;
55368;SDS011;41247;49.736;8.752;2022-09-09T04:08:33;8.32;;;1.42;;
55368;SDS011;41247;49.736;8.752;2022-09-09T04:12:14;4.38;;;0.90;;
55368;SDS011;41247;49.736;8.752;2022-09-09T04:15:55;4.82;;;0.98;;
55368;SDS011;41247;49.736;8.752;2022-09-09T04:23:19;4.72;;;1.48;;
55368;SDS011;41247;49.736;8.752;2022-09-09T04:27:00;5.68;;;0.85;;
55368;SDS011;41247;49.736;8.752;2022-09-09T04:30:41;5.75;;;0.90;;
55368;SDS011;41247;49.736;8.752;2022-09-09T04:34:23;5.43;;;1.00;;
55368;SDS011;41247;49.736;8.752;2022-09-09T04:38:04;4.35;;;1.25;;
55368;SDS011;41247;49.736;8.752;2022-09-09T04:41:45;3.25;;;0.95;;
55368;SDS011;41247;49.736;8.752;2022-09-09T04:45:26;6.28;;;1.00;;
55368;SDS011;41247;49.736;8.752;2022-09-09T04:49:06;4.88;;;1.20;;
55368;SDS011;41247;49.736;8.752;2022-09-09T04:52:47;6.93;;;1.23;;
55368;SDS011;41247;49.736;8.752;2022-09-09T04:56:28;5.70;;;1.02;;
55368;SDS011;41247;49.736;8.752;2022-09-09T05:00:10;4.50;;;0.80;;
55368;SDS011;41247;49.736;8.752;2022-09-09T05:03:52;7.80;;;1.00;;
55368;SDS011;41247;49.736;8.752;2022-09-09T05:07:33;3.15;;;0.90;;
55368;SDS011;41247;49.736;8.752;2022-09-09T05:11:23;6.07;;;1.00;;
55368;SDS011;41247;49.736;8.752;2022-09-09T05:15:22;7.25;;;0.93;;
55368;SDS011;41247;49.736;8.752;2022-09-09T06:17:18;4.47;;;0.98;;
55368;SDS011;41247;49.736;8.752;2022-09-09T06:21:02;6.63;;;1.20;;
55368;SDS011;41247;49.736;8.752;2022-09-09T06:24:46;4.72;;;0.85;;
55368;SDS011;41247;49.736;8.752;2022-09-09T06:28:27;10.18;;;1.05;;
55368;SDS011;41247;49.736;8.752;2022-09-09T06:32:07;7.82;;;1.20;;
55368;SDS011;41247;49.736;8.752;2022-09-09T06:35:51;8.60;;;0.90;;
55368;SDS011;41247;49.736;8.752;2022-09-09T06:39:33;7.68;;;1.45;;
55368;SDS011;41247;49.736;8.752;2022-09-09T06:43:14;7.18;;;1.23;;
55368;SDS011;41247;49.736;8.752;2022-09-09T06:46:57;9.80;;;1.50;;
55368;SDS011;41247;49.736;8.752;2022-09-09T06:50:41;8.25;;;1.45;;
55368;SDS011;41247;49.736;8.752;2022-09-09T06:54:21;8.55;;;1.30;;
55368;SDS011;41247;49.736;8.752;2022-09-09T06:58:02;11.18;;;1.30;;
55368;SDS011;41247;49.736;8.752;2022-09-09T07:01:48;7.00;;;1.23;;
55368;SDS011;41247;49.736;8.752;2022-09-09T07:05:28;6.15;;;1.13;;
55368;SDS011;41247;49.736;8.752;2022-09-09T07:09:10;6.70;;;1.05;;
55368;SDS011;41247;49.736;8.752;2022-09-09T07:12:53;8.60;;;1.25;;
55368;SDS011;41247;49.736;8.752;2022-09-09T07:16:34;11.30;;;1.75;;
55368;SDS011;41247;49.736;8.752;2022-09-09T07:20:15;6.47;;;1.40;;
55368;SDS011;41247;49.736;8.752;2022-09-09T07:23:55;12.10;;;1.48;;
55368;SDS011;41247;49.736;8.752;2022-09-09T07:27:36;12.02;;;1.30;;
55368;SDS011;41247;49.736;8.752;2022-09-09T07:31:18;10.68;;;1.25;;
55368;SDS011;41247;49.736;8.752;2022-09-09T07:35:02;6.25;;;1.40;;
55368;SDS011;41247;49.736;8.752;2022-09-09T07:38:44;5.72;;;1.33;;
55368;SDS011;41247;49.736;8.752;2022-09-09T07:42:27;7.70;;;1.38;;
55368;SDS011;41247;49.736;8.752;2022-09-09T07:46:08;7.57;;;1.38;;
55368;SDS011;41247;49.736;8.752;2022-09-09T07:49:49;9.60;;;1.35;;
55368;SDS011;41247;49.736;8.752;2022-09-09T07:53:30;12.80;;;1.23;;
55368;SDS011;41247;49.736;8.752;2022-09-09T07:57:10;6.90;;;1.45;;
55368;SDS011;41247;49.736;8.752;2022-09-09T08:00:51;9.85;;;1.17;;
55368;SDS011;41247;49.736;8.752;2022-09-09T08:04:32;11.52;;;1.60;;
55368;SDS011;41247;49.736;8.752;2022-09-09T08:08:12;13.50;;;1.83;;
55368;SDS011;41247;49.736;8.752;2022-09-09T08:11:53;5.47;;;1.42;;
55368;SDS011;41247;49.736;8.752;2022-09-09T08:15:34;5.65;;;1.23;;
55368;SDS011;41247;49.736;8.752;2022-09-09T08:19:15;12.18;;;1.67;;
55368;SDS011;41247;49.736;8.752;2022-09-09T08:22:56;8.35;;;1.40;;
55368;SDS011;41247;49.736;8.752;2022-09-09T08:26:41;10.43;;;1.63;;
55368;SDS011;41247;49.736;8.752;2022-09-09T08:30:24;6.43;;;1.55;;
55368;SDS011;41247;49.736;8.752;2022-09-09T08:34:05;8.38;;;1.60;;
55368;SDS011;41247;49.736;8.752;2022-09-09T08:37:46;4.07;;;1.10;;
55368;SDS011;41247;49.736;8.752;2022-09-09T08:45:49;6.85;;;1.50;;
55368;SDS011;41247;49.736;8.752;2022-09-09T08:54:07;12.57;;;1.50;;
55368;SDS011;41247;49.736;8.752;2022-09-09T08:57:49;9.60;;;1.33;;
55368;SDS011;41247;49.736;8.752;2022-09-09T09:01:38;8.40;;;1.42;;
55368;SDS011;41247;49.736;8.752;2022-09-09T09:05:44;7.45;;;1.33;;
55368;SDS011;41247;49.736;8.752;2022-09-09T09:09:42;7.55;;;1.30;;
55368;SDS011;41247;49.736;8.752;2022-09-09T09:17:20;7.60;;;1.13;;
55368;SDS011;41247;49.736;8.752;2022-09-09T09:29:14;8.75;;;1.20;;
55368;SDS011;41247;49.736;8.752;2022-09-09T09:33:02;8.35;;;1.40;;
55368;SDS011;41247;49.736;8.752;2022-09-09T09:36:58;9.13;;;1.10;;
55368;SDS011;41247;49.736;8.752;2022-09-09T09:40:48;6.88;;;1.20;;
55368;SDS011;41247;49.736;8.752;2022-09-09T09:44:31;4.57;;;1.13;;
55368;SDS011;41247;49.736;8.752;2022-09-09T09:48:12;8.20;;;1.40;;
55368;SDS011;41247;49.736;8.752;2022-09-09T09:51:53;9.43;;;1.48;;
55368;SDS011;41247;49.736;8.752;2022-09-09T09:55:44;7.55;;;1.20;;
55368;SDS011;41247;49.736;8.752;2022-09-09T09:59:45;9.35;;;1.20;;
55368;SDS011;41247;49.736;8.752;2022-09-09T10:03:33;9.73;;;1.52;;
55368;SDS011;41247;49.736;8.752;2022-09-09T10:07:18;14.63;;;1.65;;
55368;SDS011;41247;49.736;8.752;2022-09-09T10:11:06;8.82;;;1.50;;
55368;SDS011;41247;49.736;8.752;2022-09-09T10:19:13;6.43;;;1.30;;
55368;SDS011;41247;49.736;8.752;2022-09-09T10:23:21;7.68;;;1.52;;
55368;SDS011;41247;49.736;8.752;2022-09-09T10:32:15;6.57;;;1.10;;
55368;SDS011;41247;49.736;8.752;2022-09-09T10:35:59;6.40;;;1.27;;
55368;SDS011;41247;49.736;8.752;2022-09-09T10:40:05;9.93;;;1.20;;
55368;SDS011;41247;49.736;8.752;2022-09-09T10:48:45;9.43;;;1.85;;
55368;SDS011;41247;49.736;8.752;2022-09-09T10:56:56;7.10;;;1.30;;
55368;SDS011;41247;49.736;8.752;2022-09-09T11:00:44;10.65;;;1.20;;
55368;SDS011;41247;49.736;8.752;2022-09-09T11:04:32;6.47;;;1.73;;
55368;SDS011;41247;49.736;8.752;2022-09-09T11:08:26;3.67;;;0.70;;
55368;SDS011;41247;49.736;8.752;2022-09-09T11:12:11;4.55;;;0.50;;
55368;SDS011;41247;49.736;8.752;2022-09-09T11:16:00;2.67;;;0.68;;
55368;SDS011;41247;49.736;8.752;2022-09-09T11:19:52;4.07;;;0.60;;
55368;SDS011;41247;49.736;8.752;2022-09-09T11:23:37;7.85;;;0.90;;
55368;SDS011;41247;49.736;8.752;2022-09-09T11:27:26;2.83;;;0.50;;
55368;SDS011;41247;49.736;8.752;2022-09-09T11:31:25;5.53;;;1.00;;
55368;SDS011;41247;49.736;8.752;2022-09-09T11:39:38;6.82;;;1.10;;
55368;SDS011;41247;49.736;8.752;2022-09-09T11:47:31;8.30;;;1.15;;
55368;SDS011;41247;49.736;8.752;2022-09-09T11:55:08;3.72;;;0.80;;
55368;SDS011;41247;49.736;8.752;2022-09-09T11:59:28;7.95;;;1.20;;
55368;SDS011;41247;49.736;8.752;2022-09-09T12:07:25;6.65;;;1.20;;
55368;SDS011;41247;49.736;8.752;2022-09-09T12:11:32;8.65;;;1.25;;
55368;SDS011;41247;49.736;8.752;2022-09-09T12:15:20;7.78;;;0.95;;
55368;SDS011;41247;49.736;8.752;2022-09-09T12:27:17;6.17;;;1.00;;
55368;SDS011;41247;49.736;8.752;2022-09-09T12:35:27;8.02;;;1.00;;
55368;SDS011;41247;49.736;8.752;2022-09-09T12:39:17;5.38;;;0.90;;
55368;SDS011;41247;49.736;8.752;2022-09-09T12:43:19;10.18;;;2.00;;
55368;SDS011;41247;49.736;8.752;2022-09-09T12:47:02;5.90;;;1.10;;
55368;SDS011;41247;49.736;8.752;2022-09-09T12:54:26;5.25;;;0.80;;
55368;SDS011;41247;49.736;8.752;2022-09-09T12:58:07;7.07;;;1.02;;
55368;SDS011;41247;49.736;8.752;2022-09-09T13:01:58;8.93;;;1.23;;
55368;SDS011;41247;49.736;8.752;2022-09-09T13:05:39;4.50;;;1.00;;
55368;SDS011;41247;49.736;8.752;2022-09-09T13:09:20;6.32;;;1.00;;
55368;SDS011;41247;49.736;8.752;2022-09-09T13:13:01;4.93;;;0.98;;
55368;SDS011;41247;49.736;8.752;2022-09-09T13:16:42;11.82;;;0.80;;
55368;SDS011;41247;49.736;8.752;2022-09-09T13:20:23;6.38;;;0.60;;
55368;SDS011;41247;49.736;8.752;2022-09-09T13:24:05;2.78;;;0.73;;
55368;SDS011;41247;49.736;8.752;2022-09-09T13:28:22;1.42;;;0.40;;
55368;SDS011;41247;49.736;8.752;2022-09-09T13:32:06;4.03;;;0.70;;
55368;SDS011;41247;49.736;8.752;2022-09-09T13:35:57;5.75;;;0.80;;
55368;SDS011;41247;49.736;8.752;2022-09-09T13:39:50;3.65;;;0.60;;
55368;SDS011;41247;49.736;8.752;2022-09-09T13:43:42;4.75;;;0.52;;
55368;SDS011;41247;49.736;8.752;2022-09-09T13:47:35;2.58;;;0.60;;
55368;SDS011;41247;49.736;8.752;2022-09-09T13:55:18;11.60;;;1.45;;
55368;SDS011;41247;49.736;8.752;2022-09-09T13:59:02;10.00;;;1.20;;
55368;SDS011;41247;49.736;8.752;2022-09-09T14:02:46;8.45;;;1.27;;
55368;SDS011;41247;49.736;8.752;2022-09-09T14:06:28;5.50;;;1.00;;
55368;SDS011;41247;49.736;8.752;2022-09-09T14:10:09;5.60;;;0.95;;
55368;SDS011;41247;49.736;8.752;2022-09-09T14:13:51;4.32;;;0.60;;
55368;SDS011;41247;49.736;8.752;2022-09-09T14:17:32;4.95;;;0.70;;
55368;SDS011;41247;49.736;8.752;2022-09-09T14:21:13;2.72;;;0.60;;
55368;SDS011;41247;49.736;8.752;2022-09-09T14:24:54;5.90;;;0.80;;
55368;SDS011;41247;49.736;8.752;2022-09-09T14:28:35;4.40;;;0.75;;
55368;SDS011;41247;49.736;8.752;2022-09-09T14:32:16;2.60;;;0.60;;
55368;SDS011;41247;49.736;8.752;2022-09-09T14:35:57;2.10;;;0.57;;
55368;SDS011;41247;49.736;8.752;2022-09-09T14:39:40;3.53;;;0.67;;
55368;SDS011;41247;49.736;8.752;2022-09-09T14:43:20;2.55;;;0.77;;
55368;SDS011;41247;49.736;8.752;2022-09-09T14:47:01;2.55;;;0.60;;
55368;SDS011;41247;49.736;8.752;2022-09-09T14:50:41;3.85;;;0.63;;
55368;SDS011;41247;49.736;8.752;2022-09-09T14:54:22;3.45;;;0.45;;
55368;SDS011;41247;49.736;8.752;2022-09-09T14:58:03;3.83;;;0.90;;
55368;SDS011;41247;49.736;8.752;2022-09-09T15:01:44;4.13;;;0.82;;
55368;SDS011;41247;49.736;8.752;2022-09-09T15:05:25;5.05;;;0.82;;
55368;SDS011;41247;49.736;8.752;2022-09-09T15:09:06;4.45;;;0.85;;
55368;SDS011;41247;49.736;8.752;2022-09-09T15:12:46;3.47;;;0.60;;
55368;SDS011;41247;49.736;8.752;2022-09-09T15:16:27;2.83;;;0.70;;
55368;SDS011;41247;49.736;8.752;2022-09-09T15:20:08;3.13;;;0.68;;
55368;SDS011;41247;49.736;8.752;2022-09-09T15:23:49;3.53;;;0.80;;
55368;SDS011;41247;49.736;8.752;2022-09-09T15:27:30;4.00;;;0.70;;
55368;SDS011;41247;49.736;8.752;2022-09-09T15:31:12;2.05;;;0.60;;
55368;SDS011;41247;49.736;8.752;2022-09-09T15:34:55;4.45;;;0.80;;
55368;SDS011;41247;49.736;8.752;2022-09-09T15:38:36;4.22;;;0.98;;
55368;SDS011;41247;49.736;8.752;2022-09-09T15:42:16;3.38;;;0.95;;
55368;SDS011;41247;49.736;8.752;2022-09-09T15:45:59;7.25;;;0.88;;
55368;SDS011;41247;49.736;8.752;2022-09-09T15:50:04;3.50;;;0.70;;
55368;SDS011;41247;49.736;8.752;2022-09-09T15:53:45;2.33;;;0.70;;
55368;SDS011;41247;49.736;8.752;2022-09-09T15:57:26;5.30;;;0.95;;
55368;SDS011;41247;49.736;8.752;2022-09-09T16:01:07;1.42;;;0.60;;
55368;SDS011;41247;49.736;8.752;2022-09-09T16:04:50;6.13;;;0.80;;
55368;SDS011;41247;49.736;8.752;2022-09-09T16:08:31;4.30;;;0.88;;
55368;SDS011;41247;49.736;8.752;2022-09-09T16:12:17;3.72;;;0.80;;
55368;SDS011;41247;49.736;8.752;2022-09-09T16:15:57;3.80;;;0.75;;
55368;SDS011;41247;49.736;8.752;2022-09-09T16:19:38;2.20;;;0.60;;
55368;SDS011;41247;49.736;8.752;2022-09-09T16:23:18;4.03;;;0.65;;
55368;SDS011;41247;49.736;8.752;2022-09-09T16:26:59;1.92;;;0.60;;
55368;SDS011;41247;49.736;8.752;2022-09-09T16:30:39;4.55;;;0.90;;
55368;SDS011;41247;49.736;8.752;2022-09-09T16:34:20;2.40;;;0.60;;
55368;SDS011;41247;49.736;8.752;2022-09-09T16:38:01;2.95;;;0.50;;
55368;SDS011;41247;49.736;8.752;2022-09-09T16:41:42;2.33;;;0.60;;
55368;SDS011;41247;49.736;8.752;2022-09-09T16:45:25;3.07;;;0.80;;
55368;SDS011;41247;49.736;8.752;2022-09-09T16:49:06;2.88;;;0.47;;
55368;SDS011;41247;49.736;8.752;2022-09-09T16:52:52;4.22;;;0.85;;
55368;SDS011;41247;49.736;8.752;2022-09-09T16:56:34;2.22;;;0.60;;
55368;SDS011;41247;49.736;8.752;2022-09-09T17:00:18;2.75;;;0.98;;
55368;SDS011;41247;49.736;8.752;2022-09-09T17:03:59;6.07;;;1.30;;
55368;SDS011;41247;49.736;8.752;2022-09-09T17:07:41;5.47;;;1.13;;
55368;SDS011;41247;49.736;8.752;2022-09-09T17:11:22;2.45;;;0.75;;
55368;SDS011;41247;49.736;8.752;2022-09-09T17:15:03;4.90;;;0.70;;
55368;SDS011;41247;49.736;8.752;2022-09-09T17:18:45;3.55;;;0.65;;
55368;SDS011;41247;49.736;8.752;2022-09-09T17:22:26;2.92;;;0.90;;
55368;SDS011;41247;49.736;8.752;2022-09-09T17:26:07;3.58;;;0.77;;
55368;SDS011;41247;49.736;8.752;2022-09-09T17:29:51;8.95;;;0.98;;
55368;SDS011;41247;49.736;8.752;2022-09-09T17:33:32;5.07;;;1.13;;
55368;SDS011;41247;49.736;8.752;2022-09-09T17:37:19;5.05;;;0.98;;
55368;SDS011;41247;49.736;8.752;2022-09-09T17:41:03;2.80;;;1.00;;
55368;SDS011;41247;49.736;8.752;2022-09-09T17:44:49;3.90;;;0.90;;
55368;SDS011;41247;49.736;8.752;2022-09-09T17:48:29;3.88;;;1.20;;
55368;SDS011;41247;49.736;8.752;2022-09-09T17:52:10;5.13;;;1.00;;
55368;SDS011;41247;49.736;8.752;2022-09-09T17:55:51;5.82;;;1.08;;
55368;SDS011;41247;49.736;8.752;2022-09-09T17:59:32;7.03;;;1.10;;
55368;SDS011;41247;49.736;8.752;2022-09-09T18:03:12;2.78;;;0.95;;
55368;SDS011;41247;49.736;8.752;2022-09-09T18:06:53;3.67;;;0.98;;
55368;SDS011;41247;49.736;8.752;2022-09-09T18:10:34;7.53;;;1.20;;
55368;SDS011;41247;49.736;8.752;2022-09-09T18:14:15;6.55;;;1.13;;
55368;SDS011;41247;49.736;8.752;2022-09-09T18:18:01;4.55;;;1.05;;
55368;SDS011;41247;49.736;8.752;2022-09-09T18:21:42;6.57;;;1.13;;
55368;SDS011;41247;49.736;8.752;2022-09-09T18:25:24;7.53;;;1.38;;
55368;SDS011;41247;49.736;8.752;2022-09-09T18:29:05;14.10;;;1.52;;
55368;SDS011;41247;49.736;8.752;2022-09-09T18:32:49;6.07;;;1.52;;
55368;SDS011;41247;49.736;8.752;2022-09-09T18:36:32;8.05;;;2.20;;
55368;SDS011;41247;49.736;8.752;2022-09-09T18:40:28;4.57;;;1.42;;
55368;SDS011;41247;49.736;8.752;2022-09-09T18:44:15;6.10;;;1.42;;
55368;SDS011;41247;49.736;8.752;2022-09-09T18:48:02;5.78;;;1.45;;
55368;SDS011;41247;49.736;8.752;2022-09-09T18:51:43;4.25;;;1.58;;
55368;SDS011;41247;49.736;8.752;2022-09-09T18:55:25;5.30;;;1.40;;
55368;SDS011;41247;49.736;8.752;2022-09-09T18:59:06;2.72;;;1.00;;
55368;SDS011;41247;49.736;8.752;2022-09-09T19:02:49;2.78;;;1.00;;
55368;SDS011;41247;49.736;8.752;2022-09-09T19:06:30;2.40;;;0.70;;
55368;SDS011;41247;49.736;8.752;2022-09-09T19:10:12;2.67;;;0.50;;
55368;SDS011;41247;49.736;8.752;2022-09-09T19:13:57;4.30;;;0.40;;
55368;SDS011;41247;49.736;8.752;2022-09-09T19:17:40;3.72;;;0.60;;
55368;SDS011;41247;49.736;8.752;2022-09-09T19:21:22;1.67;;;0.45;;
55368;SDS011;41247;49.736;8.752;2022-09-09T19:25:08;0.90;;;0.30;;
55368;SDS011;41247;49.736;8.752;2022-09-09T19:28:48;3.25;;;0.30;;
55368;SDS011;41247;49.736;8.752;2022-09-09T19:32:29;2.33;;;0.70;;
55368;SDS011;41247;49.736;8.752;2022-09-09T19:36:10;3.65;;;0.50;;
55368;SDS011;41247;49.736;8.752;2022-09-09T19:43:34;1.58;;;0.63;;
55368;SDS011;41247;49.736;8.752;2022-09-09T19:47:16;3.50;;;0.70;;
55368;SDS011;41247;49.736;8.752;2022-09-09T19:51:01;3.92;;;0.70;;
55368;SDS011;41247;49.736;8.752;2022-09-09T19:54:48;2.15;;;0.52;;
55368;SDS011;41247;49.736;8.752;2022-09-09T19:58:29;5.95;;;0.93;;
55368;SDS011;41247;49.736;8.752;2022-09-09T20:02:13;2.65;;;0.80;;
55368;SDS011;41247;49.736;8.752;2022-09-09T20:05:53;3.80;;;0.80;;
55368;SDS011;41247;49.736;8.752;2022-09-09T20:09:34;1.40;;;0.80;;
55368;SDS011;41247;49.736;8.752;2022-09-09T20:13:15;3.05;;;1.08;;
55368;SDS011;41247;49.736;8.752;2022-09-09T20:16:55;4.72;;;1.10;;
55368;SDS011;41247;49.736;8.752;2022-09-09T20:20:39;2.15;;;0.82;;
55368;SDS011;41247;49.736;8.752;2022-09-09T20:24:21;5.47;;;1.30;;
55368;SDS011;41247;49.736;8.752;2022-09-09T20:28:01;5.18;;;1.00;;
55368;SDS011;41247;49.736;8.752;2022-09-09T20:31:43;2.78;;;0.98;;
55368;SDS011;41247;49.736;8.752;2022-09-09T20:35:24;4.20;;;0.93;;
55368;SDS011;41247;49.736;8.752;2022-09-09T20:39:05;3.58;;;0.90;;
55368;SDS011;41247;49.736;8.752;2022-09-09T20:42:50;3.00;;;0.80;;
55368;SDS011;41247;49.736;8.752;2022-09-09T20:46:31;2.75;;;0.88;;
55368;SDS011;41247;49.736;8.752;2022-09-09T20:50:15;1.95;;;0.70;;
55368;SDS011;41247;49.736;8.752;2022-09-09T20:53:56;6.13;;;1.23;;
55368;SDS011;41247;49.736;8.752;2022-09-09T21:01:20;3.78;;;0.98;;
55368;SDS011;41247;49.736;8.752;2022-09-09T21:05:00;3.53;;;1.10;;
55368;SDS011;41247;49.736;8.752;2022-09-09T21:08:41;4.70;;;2.17;;
55368;SDS011;41247;49.736;8.752;2022-09-09T21:12:23;4.45;;;1.70;;
55368;SDS011;41247;49.736;8.752;2022-09-09T21:16:04;3.00;;;1.65;;
55368;SDS011;41247;49.736;8.752;2022-09-09T21:19:47;8.63;;;1.63;;
55368;SDS011;41247;49.736;8.752;2022-09-09T21:23:28;6.07;;;1.40;;
55368;SDS011;41247;49.736;8.752;2022-09-09T21:27:09;5.35;;;1.30;;
55368;SDS011;41247;49.736;8.752;2022-09-09T21:30:50;3.63;;;1.27;;
55368;SDS011;41247;49.736;8.752;2022-09-09T21:34:33;5.13;;;1.48;;
55368;SDS011;41247;49.736;8.752;2022-09-09T21:38:15;5.72;;;1.45;;
55368;SDS011;41247;49.736;8.752;2022-09-09T21:45:38;4.32;;;1.38;;
55368;SDS011;41247;49.736;8.752;2022-09-09T21:49:20;6.80;;;1.50;;
55368;SDS011;41247;49.736;8.752;2022-09-09T21:53:01;4.78;;;1.30;;
55368;SDS011;41247;49.736;8.752;2022-09-09T21:56:41;7.90;;;1.42;;
55368;SDS011;41247;49.736;8.752;2022-09-09T22:00:22;4.32;;;1.20;;
55368;SDS011;41247;49.736;8.752;2022-09-09T22:04:02;3.28;;;1.27;;
55368;SDS011;41247;49.736;8.752;2022-09-09T22:07:43;3.50;;;1.10;;
55368;SDS011;41247;49.736;8.752;2022-09-09T22:11:24;3.60;;;1.20;;
55368;SDS011;41247;49.736;8.752;2022-09-09T22:15:05;5.63;;;1.27;;
55368;SDS011;41247;49.736;8.752;2022-09-09T22:18:52;6.25;;;1.35;;
55368;SDS011;41247;49.736;8.752;2022-09-09T22:22:35;4.72;;;1.17;;
55368;SDS011;41247;49.736;8.752;2022-09-09T22:26:16;3.50;;;1.50;;
55368;SDS011;41247;49.736;8.752;2022-09-09T22:29:56;4.38;;;1.52;;
55368;SDS011;41247;49.736;8.752;2022-09-09T22:33:37;7.75;;;1.20;;
55368;SDS011;41247;49.736;8.752;2022-09-09T22:37:18;6.75;;;1.65;;
55368;SDS011;41247;49.736;8.752;2022-09-09T22:40:58;3.50;;;1.38;;
55368;SDS011;41247;49.736;8.752;2022-09-09T22:44:40;7.18;;;1.67;;
55368;SDS011;41247;49.736;8.752;2022-09-09T22:48:20;4.20;;;1.35;;
55368;SDS011;41247;49.736;8.752;2022-09-09T22:52:01;8.02;;;1.80;;
55368;SDS011;41247;49.736;8.752;2022-09-09T22:55:42;5.63;;;1.42;;
55368;SDS011;41247;49.736;8.752;2022-09-09T23:03:17;6.57;;;1.50;;
55368;SDS011;41247;49.736;8.752;2022-09-09T23:06:57;3.92;;;1.35;;
55368;SDS011;41247;49.736;8.752;2022-09-09T23:10:39;6.50;;;1.60;;
55368;SDS011;41247;49.736;8.752;2022-09-09T23:14:19;4.72;;;1.63;;
55368;SDS011;41247;49.736;8.752;2022-09-09T23:18:00;6.82;;;1.55;;
55368;SDS011;41247;49.736;8.752;2022-09-09T23:21:41;4.78;;;1.63;;
55368;SDS011;41247;49.736;8.752;2022-09-09T23:25:24;6.43;;;1.90;;
55368;SDS011;41247;49.736;8.752;2022-09-09T23:29:04;8.10;;;1.73;;
55368;SDS011;41247;49.736;8.752;2022-09-09T23:32:47;5.82;;;1.85;;
55368;SDS011;41247;49.736;8.752;2022-09-09T23:36:28;7.80;;;1.50;;
55368;SDS011;41247;49.736;8.752;2022-09-09T23:40:10;6.90;;;2.50;;
55368;SDS011;41247;49.736;8.752;2022-09-09T23:43:52;9.45;;;3.00;;
55368;SDS011;41247;49.736;8.752;2022-09-09T23:47:32;6.63;;;3.60;;
55368;SDS011;41247;49.736;8.752;2022-09-09T23:51:13;8.77;;;3.67;;
55368;SDS011;41247;49.736;8.752;2022-09-09T23:54:54;9.63;;;4.57;;
55368;SDS011;41247;49.736;8.752;2022-09-09T23:58:34;10.25;;;6.00;;
